Lake Orion, MI (48362)

12:36 PM EDT on March 24, 2017 (GMT -0400)
Hills of Oxford Condos (North M24 Oxford/Lake Orion) | | Change Station

Elev 1020 ft 42.80 °N, 83.25 °W | Updated 1 minute ago

Overcast
Overcast
62.4 °F
Feels Like 62.4 °F
N
2.7
Wind Variable Wind from SSE
Gusts 5.6 mph

Today
High -- | Low -- °F
--% Chance of Precip.
Yesterday
High -- | Low -- °F
Precip. -- in
Pressure 29.99 in
Visibility 10.0 miles
Clouds Scattered Clouds 7000 ft
Scattered Clouds 9500 ft
Dew Point 25 °F
Humidity 24%
Rainfall 0.00 in
Snow Depth Not available.
7:28 AM 7:50 PM
Waning Crescent, 14% visible
METAR KPTK 241553Z 23015KT 10SM SCT070 SCT095 14/07 A2998 RMK AO2 SLP156 T01390072 $
Pressure 29.99 in
Visibility 10.0 miles
Clouds Scattered Clouds 7000 ft
Scattered Clouds 9500 ft
Dew Point 25 °F
Humidity 24%
Rainfall 0.00 in
Snow Depth Not available.
7:28 AM 7:50 PM
Waning Crescent, 14% visible
METAR KPTK 241553Z 23015KT 10SM SCT070 SCT095 14/07 A2998 RMK AO2 SLP156 T01390072 $

Get Severe Weather Alerts

Thanks for signing up!

Be on the lookout for a verification email in your inbox.

You'll start receiving the daily forecast at 8 AM.

×

10-Day Weather Forecast

Almanac

Astronomy

Mar. 24, 2017 Rise Set
Actual Time
Civil Twilight
Nautical Twilight
Astronomical Twilight
Moon
Length of Visible Light
Length of Day
Tomorrow will be .
, % of the Moon is Illuminated

Today's Extremes

State Highs State Lows

Community

WunderPhotos

Upload Photos

1,962,540 photos uploaded!

WunderBlog® & News

Nearby

Air Quality

  Air Quality AQ Index Pollutant
Not available.

Snow Depth

Station Depth Elevation

Earthquake Activity

City Distance Mag. Time & Date
Minimum magnitude displayed is 2.5.

Earthquake Activity

City Distance Mag. Time & Date
Minimum magnitude displayed is 2.5.

Coastal Water Temperatures

Place Temperature

Stations

Nearby Weather Stations

Station Location Temp. Windchill Dew Point Humidity Wind Precip. Elev Updated Type
                   

Watches & Warnings

There are currently no watches in effect.